createdAt,value
2018-09-17T00:00:09.848Z,17.25
2018-09-17T00:02:38.074Z,17.26
2018-09-17T00:05:06.244Z,17.27
2018-09-17T00:07:34.418Z,17.25
2018-09-17T00:10:02.603Z,17.17
2018-09-17T00:12:30.764Z,17.13
2018-09-17T00:14:58.939Z,17.17
2018-09-17T00:17:27.147Z,17.19
2018-09-17T00:19:55.291Z,17.21
2018-09-17T00:22:23.478Z,17.19
2018-09-17T00:24:51.663Z,17.20
2018-09-17T00:27:19.830Z,17.21
2018-09-17T00:29:47.998Z,17.21
2018-09-17T00:32:16.166Z,17.20
2018-09-17T00:34:44.342Z,17.12
2018-09-17T00:37:12.506Z,17.07
2018-09-17T00:39:43.142Z,17.03
2018-09-17T00:42:11.361Z,17.02
2018-09-17T00:44:39.524Z,17.02
2018-09-17T00:47:07.702Z,17.03
2018-09-17T00:49:35.895Z,17.05
2018-09-17T00:52:04.092Z,17.06
2018-09-17T00:54:32.267Z,17.08
2018-09-17T00:57:00.422Z,17.08
2018-09-17T00:59:28.604Z,17.07
2018-09-17T01:01:56.815Z,17.03
2018-09-17T01:04:24.974Z,17.01
2018-09-17T01:06:53.167Z,17.03
2018-09-17T01:09:26.659Z,17.04
2018-09-17T01:11:54.837Z,17.04
2018-09-17T01:14:23.029Z,17.05
2018-09-17T01:16:51.232Z,17.06
2018-09-17T01:19:19.426Z,17.02
2018-09-17T01:21:47.608Z,17.00
2018-09-17T01:24:15.782Z,16.98
2018-09-17T01:26:44.047Z,16.96
2018-09-17T01:29:12.258Z,16.96
2018-09-17T01:31:40.492Z,16.93
2018-09-17T01:34:08.647Z,16.85
2018-09-17T01:36:36.845Z,16.76
2018-09-17T01:39:07.451Z,16.73
2018-09-17T01:41:35.627Z,16.77
2018-09-17T01:44:03.808Z,16.79
2018-09-17T01:46:32.016Z,16.80
2018-09-17T01:49:00.222Z,16.74
2018-09-17T01:51:28.387Z,16.72
2018-09-17T01:53:56.596Z,16.68
2018-09-17T01:56:24.742Z,16.60
2018-09-17T01:58:52.905Z,16.51
2018-09-17T02:01:21.088Z,16.44
2018-09-17T02:03:49.316Z,16.44
2018-09-17T02:06:17.498Z,16.42
2018-09-17T02:08:45.763Z,16.39
2018-09-17T02:11:13.918Z,16.32
2018-09-17T02:13:42.095Z,16.31
2018-09-17T02:16:10.267Z,16.35
2018-09-17T02:18:38.438Z,16.36
2018-09-17T02:21:06.814Z,16.35
2018-09-17T02:23:35.087Z,16.35
2018-09-17T02:26:03.264Z,16.37
2018-09-17T02:28:31.486Z,16.38
2018-09-17T02:30:59.656Z,16.39
2018-09-17T02:33:27.830Z,16.37
2018-09-17T02:35:56.020Z,16.36
2018-09-17T02:38:24.174Z,16.37
2018-09-17T02:40:52.444Z,16.35
2018-09-17T02:43:20.610Z,16.36
2018-09-17T02:45:48.771Z,16.35
2018-09-17T02:48:16.967Z,16.36
2018-09-17T02:50:45.131Z,16.38
2018-09-17T02:53:13.308Z,16.37
2018-09-17T02:55:41.487Z,16.39
2018-09-17T02:58:09.667Z,16.38
2018-09-17T03:00:37.834Z,16.40
2018-09-17T03:03:06.144Z,16.38
2018-09-17T03:05:34.299Z,16.37
2018-09-17T03:08:02.519Z,16.35
2018-09-17T03:10:30.704Z,16.31
2018-09-17T03:12:58.903Z,16.33
2018-09-17T03:15:38.390Z,16.34
2018-09-17T03:18:06.575Z,16.32
2018-09-17T03:20:34.720Z,16.30
2018-09-17T03:23:02.976Z,16.30
2018-09-17T03:25:31.175Z,16.29
2018-09-17T03:27:59.367Z,16.33
2018-09-17T03:30:27.537Z,16.35
2018-09-17T03:32:55.718Z,16.38
2018-09-17T03:35:23.938Z,16.39
2018-09-17T03:37:52.107Z,16.37
2018-09-17T03:40:20.266Z,16.32
2018-09-17T03:42:48.435Z,16.27
2018-09-17T03:45:16.632Z,16.19
2018-09-17T03:47:44.799Z,16.15
2018-09-17T03:50:12.970Z,16.13
2018-09-17T03:52:41.134Z,16.12
2018-09-17T03:55:09.303Z,16.12
2018-09-17T03:57:37.482Z,16.13
2018-09-17T04:00:05.747Z,16.12
2018-09-17T04:02:33.938Z,16.11
2018-09-17T04:05:02.199Z,16.09
2018-09-17T04:07:30.358Z,16.08
2018-09-17T04:09:58.554Z,16.06
2018-09-17T04:12:26.731Z,16.07
2018-09-17T04:14:54.887Z,16.06
2018-09-17T04:17:23.088Z,16.07
2018-09-17T04:19:51.302Z,16.08
2018-09-17T04:22:19.545Z,16.07
2018-09-17T04:24:47.741Z,16.05
2018-09-17T04:27:15.940Z,16.02
2018-09-17T04:29:44.110Z,16.02
2018-09-17T04:32:12.283Z,16.00
2018-09-17T04:34:40.479Z,15.98
2018-09-17T04:37:08.658Z,15.94
2018-09-17T04:39:36.918Z,15.93
2018-09-17T04:42:05.059Z,15.93
2018-09-17T04:44:33.235Z,15.95
2018-09-17T04:47:01.469Z,15.96
2018-09-17T04:49:29.749Z,15.96
2018-09-17T04:51:58.004Z,15.97
2018-09-17T04:54:26.151Z,15.95
2018-09-17T04:56:54.381Z,15.89
2018-09-17T04:59:22.538Z,15.84
2018-09-17T05:01:50.691Z,15.81
2018-09-17T05:04:18.834Z,15.77
2018-09-17T05:06:46.995Z,15.74
2018-09-17T05:09:15.166Z,15.70
2018-09-17T05:11:43.339Z,15.67
2018-09-17T05:14:11.499Z,15.64
2018-09-17T05:16:39.658Z,15.60
2018-09-17T05:19:07.810Z,15.55
2018-09-17T05:21:35.994Z,15.56
2018-09-17T05:24:04.202Z,15.53
2018-09-17T05:26:32.358Z,15.51
2018-09-17T05:29:00.533Z,15.54
2018-09-17T05:31:28.686Z,15.56
2018-09-17T05:33:56.922Z,15.57
2018-09-17T05:36:31.742Z,15.57
2018-09-17T05:38:59.919Z,15.54
2018-09-17T05:41:28.088Z,15.52
2018-09-17T05:43:56.803Z,15.50
2018-09-17T05:46:24.970Z,15.55
2018-09-17T05:48:53.207Z,15.58
2018-09-17T05:51:21.448Z,15.62
2018-09-17T05:53:49.652Z,15.67
2018-09-17T05:56:17.766Z,15.70
2018-09-17T05:58:45.946Z,15.71
2018-09-17T06:01:14.123Z,15.70
2018-09-17T06:03:42.266Z,15.67
2018-09-17T06:06:10.608Z,15.67
2018-09-17T06:08:38.891Z,15.70
2018-09-17T06:11:07.090Z,15.69
2018-09-17T06:13:35.235Z,15.69
2018-09-17T06:16:03.422Z,15.71
2018-09-17T06:18:31.578Z,15.76
2018-09-17T06:20:59.795Z,15.80
2018-09-17T06:23:28.102Z,15.83
2018-09-17T06:25:56.142Z,15.82
2018-09-17T06:28:24.310Z,15.81
2018-09-17T06:30:52.467Z,15.84
2018-09-17T06:33:20.659Z,15.90
2018-09-17T06:35:48.959Z,15.92
2018-09-17T06:38:17.164Z,15.93
2018-09-17T06:40:45.311Z,15.97
2018-09-17T06:43:13.475Z,16.00
2018-09-17T06:45:41.647Z,16.04
2018-09-17T06:48:09.837Z,16.09
2018-09-17T06:50:38.027Z,16.12
2018-09-17T06:53:06.217Z,16.15
2018-09-17T06:55:34.642Z,16.15
2018-09-17T06:58:02.933Z,16.17
2018-09-17T07:00:31.180Z,16.18
2018-09-17T07:02:59.338Z,16.23
2018-09-17T07:05:27.513Z,16.25
2018-09-17T07:07:55.670Z,16.28
2018-09-17T07:10:23.994Z,16.30
2018-09-17T07:12:52.162Z,16.34
2018-09-17T07:15:20.514Z,16.37
2018-09-17T07:17:48.699Z,16.40
2018-09-17T07:20:16.868Z,16.46
2018-09-17T07:22:45.047Z,16.51
2018-09-17T07:25:13.287Z,16.58
2018-09-17T07:27:41.395Z,16.62
2018-09-17T07:30:09.698Z,16.69
2018-09-17T07:32:37.900Z,16.75
2018-09-17T07:35:06.159Z,16.81
2018-09-17T07:37:34.346Z,16.86
2018-09-17T07:40:02.499Z,16.93
2018-09-17T07:42:30.679Z,16.97
2018-09-17T07:44:58.894Z,17.01
2018-09-17T07:47:27.055Z,17.04
2018-09-17T07:49:55.239Z,17.10
2018-09-17T07:52:23.444Z,17.13
2018-09-17T07:54:51.634Z,17.18
2018-09-17T07:57:19.820Z,17.22
2018-09-17T07:59:48.018Z,17.27
2018-09-17T08:02:16.205Z,17.31
2018-09-17T08:04:44.371Z,17.36
2018-09-17T08:07:12.553Z,17.39
2018-09-17T08:09:40.725Z,17.44
2018-09-17T08:12:08.925Z,17.47
2018-09-17T08:14:37.106Z,17.54
2018-09-17T08:17:05.369Z,17.58
2018-09-17T08:19:33.497Z,17.64
2018-09-17T08:22:01.701Z,17.69
2018-09-17T08:24:29.976Z,17.74
2018-09-17T08:26:58.175Z,17.81
2018-09-17T08:29:26.363Z,17.87
2018-09-17T08:31:54.599Z,17.94
2018-09-17T08:34:22.780Z,17.99
2018-09-17T08:36:50.947Z,18.06
2018-09-17T08:39:19.116Z,18.10
2018-09-17T08:41:47.262Z,18.16
2018-09-17T08:44:15.412Z,18.22
2018-09-17T08:46:43.595Z,18.27
2018-09-17T08:49:11.755Z,18.32
2018-09-17T08:51:39.932Z,18.37
2018-09-17T08:54:08.142Z,18.42
2018-09-17T08:56:41.835Z,18.49
2018-09-17T08:59:15.380Z,18.55
2018-09-17T09:02:51.751Z,18.60
2018-09-17T09:05:25.430Z,18.68
2018-09-17T09:07:54.790Z,18.71
2018-09-17T09:10:28.318Z,18.75
2018-09-17T09:13:02.100Z,18.80
2018-09-17T09:15:36.148Z,18.83
2018-09-17T09:18:05.331Z,18.87
2018-09-17T09:20:33.583Z,18.90
2018-09-17T09:23:01.793Z,18.94
2018-09-17T09:25:29.983Z,18.98
2018-09-17T09:27:58.139Z,19.04
2018-09-17T09:30:26.298Z,19.10
2018-09-17T09:32:54.507Z,19.15
2018-09-17T09:35:23.026Z,19.20
2018-09-17T09:37:51.507Z,19.26
2018-09-17T09:40:19.686Z,19.29
2018-09-17T09:42:47.834Z,19.35
2018-09-17T09:45:16.859Z,19.40
2018-09-17T09:47:45.727Z,19.44
2018-09-17T09:50:13.920Z,19.52
2018-09-17T09:52:42.263Z,19.59
2018-09-17T09:55:10.392Z,19.69
2018-09-17T09:57:38.570Z,19.75
2018-09-17T10:00:12.892Z,19.85
2018-09-17T10:02:46.359Z,19.97
2018-09-17T10:05:14.583Z,20.13
2018-09-17T10:07:42.774Z,20.33
2018-09-17T10:10:16.138Z,20.58
2018-09-17T10:12:49.659Z,20.83
2018-09-17T10:16:23.947Z,21.05
2018-09-17T10:18:57.463Z,21.32
2018-09-17T10:21:25.683Z,21.50
2018-09-17T10:23:53.855Z,21.66
2018-09-17T10:26:22.029Z,21.81
2018-09-17T10:28:50.182Z,21.94
2018-09-17T10:31:18.373Z,22.03
2018-09-17T10:33:46.650Z,22.15
2018-09-17T10:36:14.815Z,22.26
2018-09-17T10:38:42.974Z,22.41
2018-09-17T10:41:11.171Z,22.53
2018-09-17T10:43:39.375Z,22.65
2018-09-17T10:46:07.527Z,22.76
2018-09-17T10:48:35.690Z,22.85
2018-09-17T10:51:03.851Z,22.92
2018-09-17T10:53:32.026Z,22.99
2018-09-17T10:56:00.199Z,23.09
2018-09-17T10:58:28.388Z,23.19
2018-09-17T11:00:56.568Z,23.29
2018-09-17T11:03:24.746Z,23.37
2018-09-17T11:05:52.918Z,23.45
2018-09-17T11:08:21.135Z,23.55
2018-09-17T11:10:49.343Z,23.67
2018-09-17T11:13:17.519Z,23.80
2018-09-17T11:15:47.366Z,23.88
2018-09-17T11:18:16.030Z,23.96
2018-09-17T11:20:44.931Z,24.03
2018-09-17T11:23:13.107Z,24.09
2018-09-17T11:25:41.314Z,24.14
2018-09-17T11:28:09.534Z,24.18
2018-09-17T11:30:37.709Z,24.27
2018-09-17T11:33:05.991Z,24.30
2018-09-17T11:35:34.186Z,24.32
2018-09-17T11:38:02.385Z,24.39
2018-09-17T11:40:30.544Z,24.45
2018-09-17T11:42:58.727Z,24.52
2018-09-17T11:45:26.944Z,24.60
2018-09-17T11:47:55.103Z,24.65
2018-09-17T11:50:23.271Z,24.62
2018-09-17T11:52:51.535Z,24.66
2018-09-17T11:55:19.766Z,24.64
2018-09-17T11:57:47.935Z,24.67
2018-09-17T12:00:20.284Z,24.68
2018-09-17T12:02:53.867Z,24.74
2018-09-17T12:05:27.372Z,24.89
2018-09-17T12:07:55.531Z,25.08
2018-09-17T12:10:23.679Z,25.21
2018-09-17T12:12:51.845Z,25.33
2018-09-17T12:15:20.022Z,25.48
2018-09-17T12:17:48.215Z,25.62
2018-09-17T12:20:16.366Z,25.76
2018-09-17T12:22:44.551Z,25.98
2018-09-17T12:25:12.712Z,26.13
2018-09-17T12:27:40.915Z,26.23
2018-09-17T12:30:09.076Z,26.29
2018-09-17T12:32:37.226Z,26.39
2018-09-17T12:35:05.407Z,26.49
2018-09-17T12:37:33.618Z,26.67
2018-09-17T12:40:01.775Z,26.86
2018-09-17T12:42:29.960Z,27.03
2018-09-17T12:44:58.123Z,27.20
2018-09-17T12:47:26.290Z,27.34
2018-09-17T12:49:54.451Z,27.44
2018-09-17T12:52:22.620Z,27.53
2018-09-17T12:54:50.784Z,27.66
2018-09-17T12:57:19.014Z,27.84
2018-09-17T12:59:47.115Z,28.01
2018-09-17T13:02:15.663Z,28.17
2018-09-17T13:04:43.823Z,28.37
2018-09-17T13:07:11.982Z,28.58
2018-09-17T13:09:40.152Z,28.78
2018-09-17T13:12:08.336Z,28.99
2018-09-17T13:14:36.507Z,29.11
2018-09-17T13:17:04.715Z,29.19
2018-09-17T13:19:32.893Z,29.29
2018-09-17T13:22:01.067Z,29.34
2018-09-17T13:24:29.239Z,29.13
2018-09-17T13:26:57.428Z,28.77
2018-09-17T13:29:25.674Z,28.41
2018-09-17T13:31:53.908Z,28.13
2018-09-17T13:34:22.003Z,27.92
2018-09-17T13:36:50.236Z,27.80
2018-09-17T13:39:18.409Z,27.71
2018-09-17T13:41:46.575Z,27.70
2018-09-17T13:44:14.840Z,27.71
2018-09-17T13:46:42.950Z,27.82
2018-09-17T13:49:11.103Z,28.24
2018-09-17T13:51:39.306Z,28.85
2018-09-17T13:54:07.480Z,29.36
2018-09-17T13:56:35.653Z,29.82
2018-09-17T13:59:03.912Z,30.13
2018-09-17T14:01:32.081Z,30.26
2018-09-17T14:04:00.277Z,30.22
2018-09-17T14:06:28.503Z,29.93
2018-09-17T14:08:56.659Z,29.53
2018-09-17T14:11:24.827Z,29.11
2018-09-17T14:13:53.035Z,28.68
2018-09-17T14:16:26.577Z,28.28
2018-09-17T14:18:54.749Z,27.95
2018-09-17T14:21:22.911Z,27.73
2018-09-17T14:23:51.077Z,27.53
2018-09-17T14:26:19.379Z,27.35
2018-09-17T14:28:47.418Z,27.21
2018-09-17T14:31:15.631Z,27.06
2018-09-17T14:33:43.810Z,26.95
2018-09-17T14:36:12.004Z,26.78
2018-09-17T14:38:40.167Z,26.66
2018-09-17T14:41:08.303Z,26.57
2018-09-17T14:43:36.546Z,26.53
2018-09-17T14:46:04.670Z,26.50
2018-09-17T14:48:32.819Z,26.48
2018-09-17T14:51:01.015Z,26.41
2018-09-17T14:53:29.402Z,26.35
2018-09-17T14:55:57.518Z,26.30
2018-09-17T14:58:25.894Z,26.24
2018-09-17T15:00:54.075Z,26.22
2018-09-17T15:03:22.337Z,26.22
2018-09-17T15:05:50.575Z,26.18
2018-09-17T15:08:18.905Z,26.17
2018-09-17T15:10:47.045Z,26.14
2018-09-17T15:13:15.182Z,26.13
2018-09-17T15:15:50.455Z,26.11
2018-09-17T15:18:18.885Z,26.07
2018-09-17T15:20:47.130Z,26.05
2018-09-17T15:23:15.354Z,26.03
2018-09-17T15:25:43.559Z,25.97
2018-09-17T15:28:11.880Z,25.93
2018-09-17T15:30:39.997Z,25.91
2018-09-17T15:33:08.272Z,25.88
2018-09-17T15:35:36.448Z,25.83
2018-09-17T15:38:04.750Z,25.81
2018-09-17T15:40:32.946Z,25.79
2018-09-17T15:43:01.185Z,25.77
2018-09-17T15:45:29.353Z,25.77
2018-09-17T15:47:58.147Z,25.72
2018-09-17T15:50:26.398Z,25.66
2018-09-17T15:52:54.609Z,25.57
2018-09-17T15:55:22.779Z,25.52
2018-09-17T15:57:50.990Z,25.46
2018-09-17T16:00:19.177Z,25.39
2018-09-17T16:02:47.432Z,25.33
2018-09-17T16:05:15.598Z,25.27
2018-09-17T16:07:43.835Z,25.23
2018-09-17T16:10:12.007Z,25.16
2018-09-17T16:12:40.171Z,25.11
2018-09-17T16:15:08.342Z,25.03
2018-09-17T16:17:36.502Z,24.97
2018-09-17T16:20:04.822Z,24.89
2018-09-17T16:22:32.905Z,24.83
2018-09-17T16:25:01.065Z,24.76
2018-09-17T16:27:29.226Z,24.67
2018-09-17T16:29:57.418Z,24.61
2018-09-17T16:32:25.598Z,24.57
2018-09-17T16:34:53.774Z,24.52
2018-09-17T16:37:21.960Z,24.48
2018-09-17T16:39:50.140Z,24.36
2018-09-17T16:42:18.320Z,24.38
2018-09-17T16:44:46.515Z,24.32
2018-09-17T16:47:14.708Z,24.25
2018-09-17T16:49:42.854Z,24.21
2018-09-17T16:52:11.019Z,24.16
2018-09-17T16:54:39.186Z,24.09
2018-09-17T16:57:07.359Z,24.02
2018-09-17T16:59:35.546Z,23.93
2018-09-17T17:02:03.716Z,23.84
2018-09-17T17:04:31.879Z,23.78
2018-09-17T17:07:00.047Z,23.71
2018-09-17T17:09:28.215Z,23.65
2018-09-17T17:11:56.474Z,23.57
2018-09-17T17:14:24.567Z,23.49
2018-09-17T17:16:52.736Z,23.43
2018-09-17T17:19:20.911Z,23.34
2018-09-17T17:21:49.086Z,23.28
2018-09-17T17:24:17.353Z,23.21
2018-09-17T17:26:45.467Z,23.17
2018-09-17T17:29:13.686Z,23.09
2018-09-17T17:31:41.826Z,23.03
2018-09-17T17:34:10.111Z,22.94
2018-09-17T17:36:38.222Z,22.86
2018-09-17T17:39:08.485Z,22.77
2018-09-17T17:41:36.660Z,22.69
2018-09-17T17:44:04.834Z,22.64
2018-09-17T17:46:33.399Z,22.57
2018-09-17T17:49:01.524Z,22.52
2018-09-17T17:51:29.674Z,22.44
2018-09-17T17:53:57.875Z,22.39
2018-09-17T17:56:26.140Z,22.33
2018-09-17T17:58:54.306Z,22.27
2018-09-17T18:01:22.544Z,22.23
2018-09-17T18:03:50.734Z,22.20
2018-09-17T18:06:18.856Z,22.18
2018-09-17T18:08:47.019Z,22.14
2018-09-17T18:11:15.194Z,22.06
2018-09-17T18:13:43.367Z,21.99
2018-09-17T18:16:11.545Z,21.91
2018-09-17T18:18:39.819Z,21.84
2018-09-17T18:21:08.310Z,21.78
2018-09-17T18:23:36.858Z,21.74
2018-09-17T18:26:05.140Z,21.68
2018-09-17T18:28:33.315Z,21.58
2018-09-17T18:31:01.531Z,21.57
2018-09-17T18:33:29.700Z,21.52
2018-09-17T18:35:57.880Z,21.47
2018-09-17T18:38:26.098Z,21.43
2018-09-17T18:40:54.280Z,21.39
2018-09-17T18:43:22.452Z,21.36
2018-09-17T18:45:50.667Z,21.34
2018-09-17T18:48:18.939Z,21.35
2018-09-17T18:50:47.027Z,21.33
2018-09-17T18:53:15.180Z,21.32
2018-09-17T18:55:43.381Z,21.30
2018-09-17T18:58:11.554Z,21.28
2018-09-17T19:00:39.718Z,21.25
2018-09-17T19:03:07.921Z,21.22
2018-09-17T19:05:36.063Z,21.18
2018-09-17T19:08:04.239Z,21.14
2018-09-17T19:10:32.411Z,21.11
2018-09-17T19:13:00.578Z,21.08
2018-09-17T19:15:34.114Z,21.06
2018-09-17T19:18:07.670Z,21.02
2018-09-17T19:20:35.994Z,20.97
2018-09-17T19:23:09.503Z,20.99
2018-09-17T19:25:37.682Z,20.96
2018-09-17T19:28:11.281Z,20.93
2018-09-17T19:30:39.427Z,20.92
2018-09-17T19:33:07.601Z,20.88
2018-09-17T19:35:35.800Z,20.87
2018-09-17T19:38:09.333Z,20.84
2018-09-17T19:40:37.480Z,20.84
2018-09-17T19:43:05.661Z,20.81
2018-09-17T19:45:39.217Z,20.79
2018-09-17T19:48:07.473Z,20.79
2018-09-17T19:50:40.999Z,20.78
2018-09-17T19:53:09.198Z,20.77
2018-09-17T19:55:37.365Z,20.76
2018-09-17T19:58:10.966Z,20.71
2018-09-17T20:00:39.330Z,20.66
2018-09-17T20:03:07.354Z,20.61
2018-09-17T20:05:40.943Z,20.57
2018-09-17T20:08:09.127Z,20.55
2018-09-17T20:10:37.285Z,20.51
2018-09-17T20:13:05.476Z,20.48
2018-09-17T20:15:33.638Z,20.45
2018-09-17T20:18:01.796Z,20.44
2018-09-17T20:20:29.977Z,20.42
2018-09-17T20:22:58.223Z,20.41
2018-09-17T20:25:26.347Z,20.36
2018-09-17T20:27:54.506Z,20.33
2018-09-17T20:30:22.690Z,20.30
2018-09-17T20:32:51.150Z,20.28
2018-09-17T20:35:19.506Z,20.27
2018-09-17T20:37:47.692Z,20.25
2018-09-17T20:40:15.885Z,20.22
2018-09-17T20:42:44.046Z,20.19
2018-09-17T20:45:12.264Z,20.16
2018-09-17T20:47:40.590Z,20.14
2018-09-17T20:50:08.780Z,20.12
2018-09-17T20:52:36.944Z,20.12
2018-09-17T20:55:05.166Z,20.13
2018-09-17T20:57:33.326Z,20.13
2018-09-17T21:00:01.560Z,20.11
2018-09-17T21:02:29.769Z,20.13
2018-09-17T21:04:57.923Z,20.12
2018-09-17T21:07:26.180Z,20.11
2018-09-17T21:09:54.280Z,20.10
2018-09-17T21:12:22.471Z,20.08
2018-09-17T21:14:50.637Z,20.07
2018-09-17T21:17:18.792Z,20.07
2018-09-17T21:19:46.968Z,20.07
2018-09-17T21:22:15.153Z,20.07
2018-09-17T21:24:43.439Z,20.05
2018-09-17T21:27:11.550Z,20.04
2018-09-17T21:29:39.726Z,20.03
2018-09-17T21:32:07.894Z,20.01
2018-09-17T21:34:36.079Z,19.97
2018-09-17T21:37:04.327Z,19.92
2018-09-17T21:39:32.465Z,19.91
2018-09-17T21:42:00.623Z,19.88
2018-09-17T21:44:28.826Z,19.89
2018-09-17T21:46:56.994Z,19.90
2018-09-17T21:49:25.163Z,19.91
2018-09-17T21:54:34.299Z,19.88
2018-09-17T21:57:02.468Z,19.86
2018-09-17T21:59:30.643Z,19.84
2018-09-17T22:01:58.803Z,19.81
2018-09-17T22:04:27.020Z,19.77
2018-09-17T22:06:55.160Z,19.75
2018-09-17T22:09:23.321Z,19.72
2018-09-17T22:11:51.495Z,19.71
2018-09-17T22:14:19.666Z,19.68
2018-09-17T22:16:47.823Z,19.63
2018-09-17T22:19:15.994Z,19.63
2018-09-17T22:21:44.203Z,19.60
2018-09-17T22:24:12.364Z,19.59
2018-09-17T22:26:40.539Z,19.59
2018-09-17T22:29:08.835Z,19.59
2018-09-17T22:31:36.867Z,19.61
2018-09-17T22:34:05.100Z,19.62
2018-09-17T22:36:33.231Z,19.61
2018-09-17T22:39:01.398Z,19.61
2018-09-17T22:41:29.593Z,19.60
2018-09-17T22:43:57.755Z,19.58
2018-09-17T22:46:25.932Z,19.57
2018-09-17T22:48:54.100Z,19.58
2018-09-17T22:51:22.280Z,19.57
2018-09-17T22:53:50.461Z,19.55
2018-09-17T22:56:18.651Z,19.53
2018-09-17T22:58:47.002Z,19.51
2018-09-17T23:01:15.172Z,19.49
2018-09-17T23:03:43.322Z,19.49
2018-09-17T23:06:11.506Z,19.48
2018-09-17T23:08:39.689Z,19.48
2018-09-17T23:11:08.043Z,19.48
2018-09-17T23:13:36.283Z,19.47
2018-09-17T23:16:04.460Z,19.46
2018-09-17T23:18:32.618Z,19.44
2018-09-17T23:21:00.798Z,19.40
2018-09-17T23:23:29.000Z,19.37
2018-09-17T23:25:57.164Z,19.36
2018-09-17T23:28:25.345Z,19.35
2018-09-17T23:30:53.518Z,19.34
2018-09-17T23:33:21.710Z,19.32
2018-09-17T23:35:49.891Z,19.32
2018-09-17T23:38:18.083Z,19.31
2018-09-17T23:40:46.254Z,19.31
2018-09-17T23:43:15.263Z,19.30
2018-09-17T23:45:43.443Z,19.27
2018-09-17T23:48:11.620Z,19.25
2018-09-17T23:50:39.791Z,19.25
2018-09-17T23:53:07.967Z,19.23
2018-09-17T23:55:36.166Z,19.21
2018-09-17T23:58:04.358Z,19.22
